Time;durP1;ratioP1;P1;durP2;ratioP2;P2;SDS_P1;SDS_P2;PMS_P1;PMS_P2;Temp;Humidity;BMP_temperature;BMP_pressure;BME280_temperature;BME280_humidity;BME280_pressure;Samples;Min_cycle;Max_cycle;Signal;HPM_P1;HPM_P2
2021/09/11 00:00:45;;;;;;;5.10;2.42;;;;;;;24.40;47.44;101203.31;5075202;28;20082;-75
2021/09/11 00:03:11;;;;;;;4.75;2.15;;;;;;;24.24;48.10;101206.44;5074993;28;20107;-75
2021/09/11 00:05:37;;;;;;;5.07;2.03;;;;;;;24.36;47.45;101208.91;5074949;28;20120;-76
2021/09/11 00:08:03;;;;;;;4.35;2.28;;;;;;;24.28;47.82;101196.88;5075340;28;20064;-76
2021/09/11 00:10:30;;;;;;;6.80;2.60;;;;;;;24.11;48.00;101200.44;5056688;28;20032;-76
2021/09/11 00:12:56;;;;;;;5.00;2.50;;;;;;;24.00;48.48;101205.16;5057114;28;20024;-76
2021/09/11 00:15:22;;;;;;;6.85;2.22;;;;;;;24.15;48.00;101208.81;5074477;28;20479;-76
2021/09/11 00:17:48;;;;;;;4.55;2.20;;;;;;;23.93;48.40;101219.91;5074706;28;20034;-76
2021/09/11 00:20:15;;;;;;;5.03;1.85;;;;;;;24.04;48.07;101206.78;5074812;28;20024;-76
2021/09/11 00:22:40;;;;;;;2.92;1.92;;;;;;;24.04;47.76;101214.38;5074996;28;20107;-76
2021/09/11 00:25:07;;;;;;;2.90;1.45;;;;;;;23.98;48.10;101211.16;5074817;28;20456;-76
2021/09/11 00:27:33;;;;;;;3.05;1.92;;;;;;;23.96;47.73;101218.31;5074782;28;20029;-76
2021/09/11 00:29:59;;;;;;;2.78;1.67;;;;;;;23.96;47.69;101215.53;5056720;28;20024;-76
2021/09/11 00:32:24;;;;;;;2.35;1.30;;;;;;;23.96;48.18;101207.16;5074716;28;20075;-76
2021/09/11 00:34:50;;;;;;;3.53;1.55;;;;;;;23.92;48.20;101212.72;5073786;28;20033;-76
2021/09/11 00:37:16;;;;;;;5.28;2.20;;;;;;;23.80;48.34;101204.69;5074195;28;20033;-76
2021/09/11 00:39:41;;;;;;;2.63;1.58;;;;;;;23.96;47.69;101207.16;5074475;28;20036;-76
2021/09/11 00:42:07;;;;;;;2.35;1.55;;;;;;;24.00;48.04;101200.38;5056505;28;20028;-76
2021/09/11 00:44:32;;;;;;;2.47;1.42;;;;;;;23.85;48.19;101207.09;5074139;28;20051;-77
2021/09/11 00:46:58;;;;;;;3.80;1.77;;;;;;;23.61;49.07;101208.59;5074429;28;20055;-76
2021/09/11 00:49:24;;;;;;;3.22;1.73;;;;;;;23.96;48.01;101207.16;5056232;28;20081;-76
2021/09/11 00:51:49;;;;;;;3.28;1.42;;;;;;;24.05;48.13;101215.97;5073925;28;20045;-76
2021/09/11 00:54:16;;;;;;;4.57;1.67;;;;;;;23.99;48.28;101211.94;5074292;28;20025;-76
2021/09/11 00:56:42;;;;;;;4.05;1.88;;;;;;;23.99;48.36;101211.94;5074166;28;20474;-76
2021/09/11 00:59:08;;;;;;;5.10;2.50;;;;;;;24.11;47.78;101207.97;5073791;28;20082;-76
2021/09/11 01:01:33;;;;;;;4.50;2.20;;;;;;;24.18;47.99;101208.84;5073562;28;20081;-76
2021/09/11 01:03:59;;;;;;;3.75;2.28;;;;;;;24.08;48.30;101220.75;5074212;28;20471;-76
2021/09/11 01:06:25;;;;;;;4.35;2.47;;;;;;;24.19;48.10;101220.78;5055535;28;20514;-76
2021/09/11 01:08:53;;;;;;;3.58;2.20;;;;;;;24.13;48.55;101217.59;5074117;28;20048;-76
2021/09/11 01:11:19;;;;;;;3.70;2.22;;;;;;;23.98;48.95;101221.53;5073825;28;20103;-76
2021/09/11 01:13:45;;;;;;;5.45;3.08;;;;;;;24.05;49.01;101221.53;5055757;28;20120;-76
2021/09/11 01:16:11;;;;;;;4.50;2.72;;;;;;;24.24;48.32;101221.19;5073649;28;20033;-76
2021/09/11 01:18:37;;;;;;;4.05;2.67;;;;;;;24.23;48.64;101227.19;5073790;28;20114;-76
2021/09/11 01:21:03;;;;;;;4.20;3.10;;;;;;;24.23;48.70;101225.19;5073955;28;20096;-76
2021/09/11 01:23:30;;;;;;;9.25;3.15;;;;;;;24.30;48.57;101228.00;5073710;28;20028;-76
2021/09/11 01:25:56;;;;;;;6.53;3.10;;;;;;;24.21;48.87;101223.97;5055162;28;20078;-76
2021/09/11 01:28:22;;;;;;;7.47;3.88;;;;;;;24.22;49.16;101229.16;5053592;28;20415;-76
2021/09/11 01:30:49;;;;;;;5.20;3.30;;;;;;;23.96;49.92;101235.06;5053343;28;20404;-74
2021/09/11 01:33:15;;;;;;;8.35;3.25;;;;;;;24.24;49.17;101228.78;5053477;28;20498;-74
2021/09/11 01:35:41;;;;;;;6.32;4.35;;;;;;;24.26;49.37;101229.19;5053520;28;20032;-74
2021/09/11 01:38:07;;;;;;;5.35;3.70;;;;;;;24.16;49.57;101230.75;5053397;28;20051;-73
2021/09/11 01:40:33;;;;;;;8.35;3.83;;;;;;;24.18;49.61;101233.13;5053347;28;20025;-73
2021/09/11 01:42:59;;;;;;;5.30;3.55;;;;;;;24.06;50.08;101229.53;5053301;28;20029;-74
2021/09/11 01:45:25;;;;;;;8.15;3.50;;;;;;;24.22;49.20;101225.59;5035375;28;20040;-73
2021/09/11 01:47:51;;;;;;;4.65;3.10;;;;;;;24.03;50.06;101226.69;5052618;28;20037;-74
2021/09/11 01:50:19;;;;;;;7.15;3.17;;;;;;;24.07;49.64;101225.53;5052865;28;20032;-74
2021/09/11 01:52:45;;;;;;;7.63;3.60;;;;;;;24.21;49.35;101230.38;5053068;28;20045;-73
2021/09/11 01:55:12;;;;;;;6.50;2.80;;;;;;;24.14;49.33;101224.75;5053021;28;20033;-73
2021/09/11 01:57:46;;;;;;;8.25;3.20;;;;;;;24.28;49.09;101227.59;5053056;28;20032;-74
2021/09/11 02:00:13;;;;;;;5.07;2.50;;;;;;;24.13;49.30;101228.75;5053093;28;20033;-74
2021/09/11 02:02:39;;;;;;;4.75;2.60;;;;;;;24.05;49.74;101227.13;5034668;28;20032;-74
2021/09/11 02:05:07;;;;;;;5.10;2.83;;;;;;;24.09;49.68;101219.56;5052622;28;20106;-74
2021/09/11 02:07:33;;;;;;;4.05;2.60;;;;;;;24.27;48.76;101222.41;5052670;28;20025;-74
2021/09/11 02:09:58;;;;;;;4.25;2.38;;;;;;;24.11;49.28;101219.97;5052839;28;20113;-73
2021/09/11 02:12:24;;;;;;;5.97;3.00;;;;;;;24.05;49.45;101218.75;5052772;28;20104;-74
2021/09/11 02:14:50;;;;;;;7.05;2.83;;;;;;;24.14;48.83;101219.19;5052726;28;20386;-74
2021/09/11 02:17:15;;;;;;;7.35;2.85;;;;;;;23.88;50.03;101222.25;5052184;28;20028;-74
2021/09/11 02:19:41;;;;;;;5.30;2.67;;;;;;;23.93;49.68;101219.91;5052451;28;20105;-73
2021/09/11 02:22:10;;;;;;;5.75;2.65;;;;;;;23.91;49.68;101225.06;5052685;28;20104;-74
2021/09/11 02:24:40;;;;;;;6.38;3.13;;;;;;;23.88;49.76;101222.25;5052529;28;20085;-74
2021/09/11 02:27:06;;;;;;;5.35;2.40;;;;;;;23.80;49.88;101216.66;5052638;28;20021;-74
2021/09/11 02:29:33;;;;;;;5.75;2.58;;;;;;;23.85;49.72;101203.50;5034467;28;20062;-74
2021/09/11 02:32:01;;;;;;;3.92;2.47;;;;;;;23.84;50.03;101213.09;5034334;28;20021;-74
2021/09/11 02:34:28;;;;;;;3.47;2.00;;;;;;;23.95;49.47;101220.28;5052408;28;20079;-74
2021/09/11 02:36:54;;;;;;;5.57;2.70;;;;;;;24.02;49.25;101208.34;5052353;28;20082;-74
2021/09/11 02:39:20;;;;;;;3.75;2.13;;;;;;;23.89;49.42;101227.47;5034253;28;20539;-74
2021/09/11 02:41:46;;;;;;;2.78;1.75;;;;;;;23.80;49.93;101225.03;5052597;28;20082;-74
2021/09/11 02:44:11;;;;;;;3.78;2.00;;;;;;;23.88;49.77;101225.88;5034499;28;20166;-74
2021/09/11 02:46:37;;;;;;;2.70;1.95;;;;;;;24.06;48.96;101223.13;5052373;28;20463;-73
2021/09/11 02:49:03;;;;;;;3.13;1.95;;;;;;;24.02;49.34;101225.09;5052278;28;20025;-74
2021/09/11 02:51:29;;;;;;;3.72;2.25;;;;;;;23.88;49.85;101219.47;5052275;28;20045;-74
2021/09/11 02:53:55;;;;;;;6.35;2.20;;;;;;;23.98;49.30;101222.31;5052352;28;20035;-74
2021/09/11 02:56:21;;;;;;;4.97;1.90;;;;;;;24.06;48.89;101223.13;5034296;28;20033;-74
2021/09/11 02:58:47;;;;;;;4.20;2.10;;;;;;;24.05;48.84;101235.50;5053358;28;20527;-74
2021/09/11 03:01:13;;;;;;;4.63;2.17;;;;;;;24.15;48.81;101226.34;5038523;28;20052;-73
2021/09/11 03:03:39;;;;;;;9.90;2.38;;;;;;;24.27;47.96;101228.78;5056597;28;20464;-73
2021/09/11 03:06:04;;;;;;;3.25;1.90;;;;;;;24.14;48.65;101224.75;5056311;28;20025;-74
2021/09/11 03:08:30;;;;;;;4.28;2.00;;;;;;;24.23;48.22;101225.19;5056286;28;20033;-73
2021/09/11 03:10:56;;;;;;;6.88;1.90;;;;;;;24.29;48.02;101223.59;5056453;28;20048;-74
2021/09/11 03:13:22;;;;;;;4.63;1.90;;;;;;;24.15;48.56;101226.34;5056273;28;20104;-74
2021/09/11 03:15:50;;;;;;;2.92;2.20;;;;;;;24.32;47.78;101227.59;5056008;28;20093;-74
2021/09/11 03:18:15;;;;;;;4.55;2.17;;;;;;;24.48;47.55;101228.06;5056126;28;20391;-73
2021/09/11 03:20:46;;;;;;;2.67;1.70;;;;;;;24.22;47.90;101225.59;5056050;28;20082;-74
2021/09/11 03:23:13;;;;;;;3.53;1.88;;;;;;;24.23;48.32;101227.97;5056010;28;20436;-74
2021/09/11 03:25:39;;;;;;;3.70;2.05;;;;;;;24.08;48.32;101231.91;5055904;28;20032;-74
2021/09/11 03:28:05;;;;;;;4.00;2.53;;;;;;;24.15;48.38;101236.72;5055887;28;20036;-74
2021/09/11 03:30:31;;;;;;;7.03;2.40;;;;;;;24.35;47.11;101224.06;5055744;28;20117;-74
2021/09/11 03:32:57;;;;;;;4.18;2.20;;;;;;;24.21;47.55;101235.94;5056070;28;20057;-73
2021/09/11 03:35:23;;;;;;;3.63;2.50;;;;;;;24.28;47.46;101230.38;5055663;28;20060;-74
2021/09/11 03:37:50;;;;;;;6.72;3.08;;;;;;;24.06;48.06;101237.09;5055686;28;20078;-74
2021/09/11 03:40:16;;;;;;;17.38;3.83;;;;;;;24.12;47.55;101229.16;5055652;28;20033;-74
2021/09/11 03:42:42;;;;;;;6.07;3.03;;;;;;;23.82;48.69;101244.19;5055887;28;20108;-74
2021/09/11 03:45:09;;;;;;;8.23;3.05;;;;;;;23.75;48.73;101247.72;5055605;28;20496;-74
2021/09/11 03:47:34;;;;;;;5.70;2.40;;;;;;;23.86;48.47;101246.97;5055622;28;20052;-74
2021/09/11 03:50:00;;;;;;;5.00;3.50;;;;;;;23.90;47.94;101253.38;5055443;28;20472;-74
2021/09/11 03:52:26;;;;;;;6.13;3.15;;;;;;;23.83;48.19;101242.97;5055520;28;20042;-74
2021/09/11 03:54:52;;;;;;;5.85;3.70;;;;;;;23.71;48.57;101238.53;5055325;28;20032;-74
2021/09/11 03:57:18;;;;;;;5.15;3.80;;;;;;;23.54;49.36;101242.78;5055522;28;20065;-74
2021/09/11 03:59:43;;;;;;;5.65;4.30;;;;;;;23.76;48.73;101243.75;5055273;28;20517;-73
2021/09/11 04:02:09;;;;;;;6.00;4.80;;;;;;;23.76;48.23;101242.94;5055220;28;20104;-74
2021/09/11 04:04:34;;;;;;;6.68;4.15;;;;;;;23.70;48.51;101252.88;5055049;28;20036;-74
2021/09/11 04:07:00;;;;;;;4.35;3.33;;;;;;;23.53;48.93;101252.34;5055316;28;20131;-74
2021/09/11 04:09:26;;;;;;;7.30;3.53;;;;;;;23.46;49.49;101259.88;5055014;28;20033;-74
2021/09/11 04:11:51;;;;;;;4.75;2.83;;;;;;;23.50;49.30;101263.47;5055037;28;20028;-74
2021/09/11 04:14:17;;;;;;;4.68;3.22;;;;;;;23.40;49.61;101258.63;5055098;28;20395;-74
2021/09/11 04:16:43;;;;;;;5.00;2.75;;;;;;;23.66;48.35;101255.66;5054981;28;20037;-74
2021/09/11 04:19:08;;;;;;;4.60;2.38;;;;;;;23.18;49.99;101255.69;5054812;28;20442;-74
2021/09/11 04:21:34;;;;;;;6.35;3.70;;;;;;;23.38;49.42;101255.44;5053788;28;20037;-74
2021/09/11 04:24:04;;;;;;;3.72;2.42;;;;;;;23.40;49.34;101265.00;5055135;28;20078;-74
2021/09/11 04:26:30;;;;;;;7.72;3.53;;;;;;;23.30;49.41;101262.16;5037777;28;20079;-74
2021/09/11 04:28:56;;;;;;;7.35;3.15;;;;;;;23.20;49.97;101252.50;5054749;28;20507;-74
2021/09/11 04:31:22;;;;;;;7.32;2.67;;;;;;;23.11;50.15;101255.63;5036907;28;20073;-74
2021/09/11 04:33:47;;;;;;;4.10;2.50;;;;;;;23.19;49.67;101257.28;5054663;28;20052;-74
2021/09/11 04:36:13;;;;;;;8.00;3.72;;;;;;;23.29;49.79;101257.78;5054356;28;20028;-74
2021/09/11 04:38:41;;;;;;;5.78;2.80;;;;;;;23.41;49.42;101251.88;5054425;28;20025;-74
2021/09/11 04:41:06;;;;;;;8.00;2.95;;;;;;;23.14;50.07;101249.31;5054473;28;20518;-74
2021/09/11 04:43:32;;;;;;;5.75;2.88;;;;;;;23.05;50.60;101248.00;5054304;28;20505;-73
2021/09/11 04:45:59;;;;;;;5.57;2.72;;;;;;;23.07;50.18;101246.44;5054512;28;20475;-74
2021/09/11 04:48:25;;;;;;;5.53;2.75;;;;;;;22.78;50.97;101241.78;5054297;28;20021;-73
2021/09/11 04:50:50;;;;;;;5.78;2.85;;;;;;;22.98;50.51;101251.56;5054200;28;20049;-74
2021/09/11 04:53:16;;;;;;;4.72;2.63;;;;;;;23.07;50.46;101254.81;5036488;28;20029;-74
2021/09/11 04:55:42;;;;;;;6.90;2.92;;;;;;;22.96;50.56;101253.91;5054300;28;20033;-76
2021/09/11 04:58:07;;;;;;;4.00;2.72;;;;;;;23.00;50.42;101257.53;5054356;28;20025;-73
2021/09/11 05:00:33;;;;;;;4.00;2.80;;;;;;;23.07;50.38;101254.00;5053958;28;20055;-74
2021/09/11 05:03:00;;;;;;;3.58;2.13;;;;;;;22.90;50.94;101255.47;5054059;28;20032;-74
2021/09/11 05:05:26;;;;;;;5.47;2.75;;;;;;;22.82;51.18;101268.50;5053967;28;20028;-74
2021/09/11 05:07:57;;;;;;;6.05;2.50;;;;;;;22.68;51.76;101257.22;5054107;28;20021;-73
2021/09/11 05:10:24;;;;;;;5.35;2.50;;;;;;;22.60;52.06;101261.94;5053857;28;20025;-74
2021/09/11 05:12:51;;;;;;;5.07;2.50;;;;;;;22.62;52.23;101255.97;5053643;28;20024;-74
2021/09/11 05:15:16;;;;;;;5.95;2.47;;;;;;;22.87;51.29;101245.88;5053815;28;20029;-74
2021/09/11 05:17:43;;;;;;;3.63;2.35;;;;;;;22.73;52.02;101253.28;5053514;28;20095;-74
2021/09/11 05:20:11;;;;;;;4.13;2.85;;;;;;;22.96;51.02;101262.28;5053644;28;20025;-73
2021/09/11 05:22:37;;;;;;;4.53;2.38;;;;;;;23.03;50.87;101261.53;5053109;28;20099;-74
2021/09/11 05:25:05;;;;;;;5.18;2.72;;;;;;;22.95;51.26;101264.25;5053903;28;20163;-73
2021/09/11 05:27:30;;;;;;;5.57;2.53;;;;;;;22.96;51.18;101279.00;5053622;28;20028;-74
2021/09/11 05:29:56;;;;;;;8.55;3.10;;;;;;;22.69;51.93;101279.13;5053634;28;20025;-73
2021/09/11 05:32:22;;;;;;;7.32;2.60;;;;;;;22.54;52.83;101271.81;5053577;28;20108;-74
2021/09/11 05:34:47;;;;;;;4.65;2.40;;;;;;;22.65;52.13;101281.06;5053497;28;20021;-73
2021/09/11 05:37:13;;;;;;;4.00;2.40;;;;;;;22.60;52.50;101278.63;5053652;28;20104;-73
2021/09/11 05:39:38;;;;;;;4.15;2.97;;;;;;;22.49;52.76;101282.47;5035176;28;20549;-74
2021/09/11 05:42:04;;;;;;;10.00;3.40;;;;;;;22.75;52.16;101287.09;5053267;28;20029;-74
2021/09/11 05:44:30;;;;;;;3.50;2.42;;;;;;;22.79;51.86;101285.97;5053476;28;20028;-74
2021/09/11 05:46:57;;;;;;;3.78;2.65;;;;;;;22.63;52.47;101286.22;5053234;28;20119;-73
2021/09/11 05:49:25;;;;;;;3.95;2.60;;;;;;;22.86;51.60;101282.50;5053181;28;20025;-74
2021/09/11 05:51:51;;;;;;;6.22;2.90;;;;;;;23.00;51.08;101284.59;5053087;28;20501;-73
2021/09/11 05:54:17;;;;;;;6.70;2.70;;;;;;;23.08;51.08;101281.50;5053181;28;20111;-74
2021/09/11 05:56:42;;;;;;;5.45;2.63;;;;;;;22.77;52.04;101291.13;5053290;28;20029;-74
2021/09/11 05:59:08;;;;;;;4.50;2.72;;;;;;;23.02;51.28;101287.81;5053099;28;20025;-74
2021/09/11 06:01:33;;;;;;;4.18;2.78;;;;;;;22.87;51.73;101298.00;5052955;28;20475;-74
2021/09/11 06:03:59;;;;;;;6.10;2.97;;;;;;;23.19;50.75;101301.88;5053368;28;20087;-73
2021/09/11 06:06:25;;;;;;;3.33;2.50;;;;;;;23.26;50.97;101307.53;5067912;28;20387;-74
2021/09/11 06:08:50;;;;;;;3.33;2.40;;;;;;;23.18;51.01;101308.66;5053069;28;20061;-74
2021/09/11 06:11:16;;;;;;;7.18;2.53;;;;;;;23.05;51.72;101304.56;5052822;28;20031;-73
2021/09/11 06:13:42;;;;;;;7.03;2.80;;;;;;;22.98;52.19;101310.88;5052796;28;20025;-74
2021/09/11 06:16:08;;;;;;;8.30;2.80;;;;;;;23.31;51.12;101316.72;5052778;28;20033;-74
2021/09/11 06:18:34;;;;;;;4.68;2.72;;;;;;;23.45;50.34;101325.22;5034821;28;20085;-74
2021/09/11 06:21:00;;;;;;;4.03;2.33;;;;;;;23.43;50.60;101319.22;5052697;28;20028;-74
2021/09/11 06:23:27;;;;;;;3.67;2.13;;;;;;;23.42;50.84;101323.19;5052758;28;20021;-74
2021/09/11 06:25:53;;;;;;;9.85;3.53;;;;;;;23.45;50.90;101317.63;5052534;28;20028;-73
2021/09/11 06:28:21;;;;;;;4.25;2.45;;;;;;;23.31;51.17;101328.69;5052319;28;20033;-73
2021/09/11 06:30:47;;;;;;;4.45;2.38;;;;;;;23.20;51.61;101328.59;5052767;28;20028;-73
2021/09/11 06:33:13;;;;;;;5.57;2.45;;;;;;;23.10;51.75;101336.84;5051314;28;20376;-73
2021/09/11 06:35:38;;;;;;;13.40;3.10;;;;;;;23.14;51.85;101341.28;5052454;28;20111;-73
2021/09/11 06:38:04;;;;;;;10.77;3.10;;;;;;;23.30;51.09;101343.81;5052136;28;20029;-73
2021/09/11 06:40:29;;;;;;;5.00;2.95;;;;;;;23.48;50.34;101346.72;5052445;28;20087;-72
2021/09/11 06:42:55;;;;;;;5.05;2.08;;;;;;;23.40;50.91;101354.25;5052545;28;20064;-71
2021/09/11 06:45:21;;;;;;;6.38;2.58;;;;;;;23.31;51.46;101355.75;5052892;28;20037;-72
2021/09/11 06:47:47;;;;;;;8.20;2.75;;;;;;;23.39;51.04;101357.41;5063451;28;20394;-72
2021/09/11 06:50:12;;;;;;;4.82;2.75;;;;;;;23.51;50.44;101352.34;5072395;28;20021;-73
2021/09/11 06:52:38;;;;;;;7.70;2.08;;;;;;;23.38;51.01;101351.03;5072198;28;20048;-74
2021/09/11 06:55:04;;;;;;;6.63;2.33;;;;;;;23.43;51.25;101358.25;5054140;28;20032;-73
2021/09/11 06:57:29;;;;;;;5.65;2.58;;;;;;;23.44;51.31;101352.28;5072371;28;20115;-73
2021/09/11 06:59:55;;;;;;;5.72;2.60;;;;;;;23.64;50.76;101358.44;5072349;28;20046;-74
2021/09/11 07:02:20;;;;;;;5.60;2.40;;;;;;;23.82;50.42;101355.00;5054488;28;20028;-73
2021/09/11 07:04:46;;;;;;;6.95;2.72;;;;;;;23.94;50.11;101361.03;5054233;28;20032;-73
2021/09/11 07:07:11;;;;;;;5.03;2.30;;;;;;;24.32;49.14;101359.66;5071437;28;20036;-74
2021/09/11 07:09:37;;;;;;;7.30;2.22;;;;;;;24.31;49.24;101358.03;5071692;28;20040;-76
2021/09/11 07:12:03;;;;;;;5.03;2.25;;;;;;;23.97;49.84;101365.84;5072202;28;20033;-75
2021/09/11 07:14:28;;;;;;;5.78;2.70;;;;;;;24.06;50.18;101352.34;5072132;28;20107;-76
2021/09/11 07:16:54;;;;;;;5.65;2.63;;;;;;;24.05;50.22;101366.69;5072219;28;20032;-75
2021/09/11 07:19:19;;;;;;;4.82;2.60;;;;;;;24.18;49.85;101369.94;5072258;28;20025;-75
2021/09/11 07:21:45;;;;;;;10.20;3.03;;;;;;;24.25;49.61;101364.38;5072158;28;20035;-75
2021/09/11 07:24:11;;;;;;;8.32;3.03;;;;;;;24.30;49.29;101364.81;5071999;28;20489;-76
2021/09/11 07:26:36;;;;;;;6.25;3.50;;;;;;;24.33;49.67;101371.63;5072056;28;20032;-76
2021/09/11 07:29:02;;;;;;;4.82;2.88;;;;;;;24.47;48.94;101365.31;5072340;28;20028;-75
2021/09/11 07:31:27;;;;;;;7.03;2.90;;;;;;;24.52;49.01;101367.75;5072012;28;20112;-75
2021/09/11 07:33:53;;;;;;;8.70;3.03;;;;;;;24.74;48.81;101360.22;5072168;28;20107;-75
2021/09/11 07:36:19;;;;;;;6.40;2.33;;;;;;;24.66;48.94;101362.22;5071870;28;20028;-76
2021/09/11 07:38:45;;;;;;;7.28;3.22;;;;;;;24.87;48.12;101358.69;5071266;28;20078;-76
2021/09/11 07:41:10;;;;;;;4.55;2.05;;;;;;;24.87;48.39;101362.28;5070316;28;20024;-76
2021/09/11 07:43:36;;;;;;;4.10;2.70;;;;;;;24.99;47.88;101366.66;5070706;28;20052;-75
2021/09/11 07:46:02;;;;;;;6.68;2.78;;;;;;;25.00;48.19;101362.69;5056751;28;20372;-74
2021/09/11 07:48:28;;;;;;;6.15;2.83;;;;;;;25.01;47.89;101361.47;5057938;28;20025;-74
2021/09/11 07:50:54;;;;;;;8.05;2.92;;;;;;;25.09;47.89;101365.13;5057287;28;20052;-74
2021/09/11 07:53:19;;;;;;;6.95;2.53;;;;;;;25.10;47.44;101370.34;5075770;28;20033;-75
2021/09/11 07:55:45;;;;;;;9.43;2.90;;;;;;;25.33;47.16;101372.75;5075434;28;20032;-75
2021/09/11 07:58:11;;;;;;;5.32;2.17;;;;;;;25.28;47.32;101378.72;5075457;28;20028;-74
2021/09/11 08:00:37;;;;;;;3.40;1.80;;;;;;;25.26;47.19;101381.13;5057601;28;20115;-75
2021/09/11 08:03:02;;;;;;;8.85;3.33;;;;;;;25.31;46.93;101386.31;5057085;28;20162;-75
2021/09/11 08:05:28;;;;;;;4.93;2.03;;;;;;;25.40;46.68;101392.34;5074943;28;20040;-75
2021/09/11 08:07:54;;;;;;;5.20;1.98;;;;;;;25.21;47.24;101389.09;5075429;28;20597;-75
2021/09/11 08:10:20;;;;;;;6.50;3.00;;;;;;;25.24;47.08;101386.34;5075033;28;20024;-75
2021/09/11 08:12:47;;;;;;;4.57;2.35;;;;;;;25.23;47.35;101392.31;5056719;28;20033;-75
2021/09/11 08:15:15;;;;;;;5.68;2.50;;;;;;;25.20;47.16;101396.69;5074889;28;20040;-75
2021/09/11 08:17:42;;;;;;;9.27;2.78;;;;;;;25.31;46.88;101394.69;5057019;28;20071;-75
2021/09/11 08:20:08;;;;;;;25.25;6.68;;;;;;;25.13;47.37;101405.06;5075050;28;20035;-75
2021/09/11 08:22:34;;;;;;;5.82;3.10;;;;;;;25.27;46.80;101399.50;5074932;28;20383;-75
2021/09/11 08:24:59;;;;;;;5.88;2.60;;;;;;;25.27;47.20;101410.69;5074547;28;20024;-75
2021/09/11 08:27:25;;;;;;;8.73;2.80;;;;;;;25.54;46.47;101418.69;5074205;28;20033;-74
2021/09/11 08:29:51;;;;;;;7.65;2.72;;;;;;;25.49;46.56;101419.91;5074493;28;20029;-75
2021/09/11 08:32:17;;;;;;;3.05;1.77;;;;;;;25.70;45.99;101419.13;5072551;28;20422;-75
2021/09/11 08:34:43;;;;;;;4.20;2.05;;;;;;;25.62;45.94;101421.13;5073325;28;20475;-75
2021/09/11 08:37:08;;;;;;;4.95;2.13;;;;;;;25.83;45.88;101416.72;5074413;28;20035;-74
2021/09/11 08:39:34;;;;;;;7.22;2.42;;;;;;;25.67;45.89;101409.50;5056520;28;20021;-74
2021/09/11 08:42:01;;;;;;;2.78;1.45;;;;;;;25.52;46.28;101423.91;5074685;28;20051;-74
2021/09/11 08:44:27;;;;;;;5.97;2.13;;;;;;;25.70;45.96;101425.50;5072888;28;20111;-74
2021/09/11 08:46:55;;;;;;;6.55;2.05;;;;;;;25.96;45.23;101432.72;5074448;28;20457;-74
2021/09/11 08:49:21;;;;;;;7.47;1.88;;;;;;;26.02;44.95;101426.72;5073507;28;20054;-74
2021/09/11 08:51:47;;;;;;;5.20;1.67;;;;;;;26.17;44.42;101428.28;5072371;28;20123;-74
2021/09/11 08:54:19;;;;;;;3.63;1.40;;;;;;;26.23;44.30;101437.88;5073469;28;20060;-86
2021/09/11 08:56:45;;;;;;;4.13;1.40;;;;;;;26.20;44.67;101441.47;5055045;28;20554;-75
2021/09/11 08:59:15;;;;;;;3.90;1.63;;;;;;;26.28;44.29;101443.06;5073983;28;20029;-74
2021/09/11 09:01:42;;;;;;;2.22;1.13;;;;;;;26.31;43.91;101442.25;5074473;28;20027;-76
2021/09/11 09:04:09;;;;;;;8.43;2.10;;;;;;;26.40;43.86;101453.88;5074367;28;20032;-74
2021/09/11 09:06:36;;;;;;;7.80;1.83;;;;;;;26.47;43.45;101456.66;5074196;28;20479;-74
2021/09/11 09:09:07;;;;;;;2.65;1.10;;;;;;;26.63;43.07;101456.19;5074060;28;20825;-74
2021/09/11 09:11:34;;;;;;;5.30;1.77;;;;;;;26.69;42.83;101451.78;5074296;28;20067;-74
2021/09/11 09:14:14;;;;;;;4.95;2.08;;;;;;;26.65;42.96;101456.59;5056104;28;20082;-74
2021/09/11 09:16:52;;;;;;;6.85;1.80;;;;;;;26.75;42.77;101460.53;5073933;28;20036;-74
2021/09/11 09:19:21;;;;;;;5.20;0.93;;;;;;;26.80;42.59;101457.31;5055963;28;20036;-74
2021/09/11 09:21:49;;;;;;;4.10;0.90;;;;;;;26.91;42.20;101463.69;5073817;28;20475;-74
2021/09/11 09:24:36;;;;;;;1.13;0.63;;;;;;;26.88;41.83;101474.91;5073698;28;20477;-74
2021/09/11 09:27:06;;;;;;;2.75;0.73;;;;;;;26.68;41.74;101474.63;5073962;28;20570;-75
2021/09/11 09:29:39;;;;;;;3.45;1.33;;;;;;;26.60;41.67;101482.25;5073831;28;20021;-74
2021/09/11 09:32:06;;;;;;;3.20;0.90;;;;;;;26.83;41.24;101476.94;5073625;28;20033;-75
2021/09/11 09:34:41;;;;;;;6.43;1.08;;;;;;;26.76;41.41;101478.97;5073636;28;20020;-75
2021/09/11 09:37:14;;;;;;;6.75;1.52;;;;;;;26.76;41.84;101487.38;5073686;28;20024;-75
2021/09/11 09:39:41;;;;;;;2.60;1.15;;;;;;;26.68;42.09;101478.22;5073635;28;20024;-76
2021/09/11 09:42:08;;;;;;;3.95;0.90;;;;;;;26.77;42.13;101480.56;5073572;28;20024;-75
2021/09/11 09:44:48;;;;;;;3.20;1.27;;;;;;;26.94;41.80;101473.28;5073676;28;20020;-74
2021/09/11 09:47:18;;;;;;;1.45;0.80;;;;;;;27.02;41.88;101474.84;5073282;28;20161;-75
2021/09/11 09:50:15;;;;;;;2.00;0.70;;;;;;;26.77;41.58;101472.97;5073458;28;20103;-75
2021/09/11 09:52:41;;;;;;;7.30;1.33;;;;;;;26.94;41.60;101468.47;5073594;28;20047;-75
2021/09/11 09:55:08;;;;;;;3.13;0.70;;;;;;;26.79;41.58;101464.13;5073142;28;20032;-76
2021/09/11 09:57:38;;;;;;;5.55;1.30;;;;;;;26.77;41.95;101463.75;5073222;28;20126;-75
2021/09/11 10:00:04;;;;;;;5.60;1.60;;;;;;;26.64;42.23;101471.81;5055513;28;20017;-76
2021/09/11 10:02:31;;;;;;;12.32;1.77;;;;;;;26.73;42.21;101465.75;5073357;28;20056;-72
2021/09/11 10:04:57;;;;;;;10.40;1.60;;;;;;;26.93;42.16;101452.06;5072821;28;20052;-75
2021/09/11 10:07:24;;;;;;;4.93;1.40;;;;;;;27.09;41.91;101464.41;5072335;28;20044;-75
2021/09/11 10:09:51;;;;;;;1.98;0.80;;;;;;;27.03;42.07;101471.63;5055189;28;20115;-74
2021/09/11 10:12:39;;;;;;;3.42;1.90;;;;;;;27.26;41.73;101468.31;5072909;28;20036;-75
2021/09/11 10:15:27;;;;;;;6.68;1.40;;;;;;;27.31;41.94;101462.28;5071963;28;20047;-75
2021/09/11 10:17:55;;;;;;;7.00;1.75;;;;;;;27.27;41.57;101469.91;5071308;28;20431;-75
2021/09/11 10:20:21;;;;;;;3.22;1.10;;;;;;;27.31;41.45;101469.91;5071852;28;20048;-75
2021/09/11 10:23:05;;;;;;;3.15;1.00;;;;;;;27.27;40.98;101469.91;5071718;28;20031;-75
2021/09/11 10:25:48;;;;;;;3.58;1.23;;;;;;;27.19;41.06;101468.38;5071758;28;20082;-75
2021/09/11 10:28:24;;;;;;;3.53;1.00;;;;;;;27.30;41.01;101477.53;5071964;28;20033;-75
2021/09/11 10:31:08;;;;;;;2.10;1.13;;;;;;;27.26;40.53;101481.56;5054879;28;20024;-75
2021/09/11 10:33:52;;;;;;;7.65;1.38;;;;;;;27.10;40.62;101480.03;5072682;28;20429;-75
2021/09/11 10:36:21;;;;;;;1.40;0.80;;;;;;;27.26;40.72;101478.75;5072688;28;20032;-75
2021/09/11 10:38:51;;;;;;;4.00;0.73;;;;;;;27.17;40.77;101481.22;5054743;28;20056;-75
2021/09/11 10:41:17;;;;;;;5.13;1.30;;;;;;;27.41;40.32;101473.84;5072734;28;20027;-75
2021/09/11 10:44:05;;;;;;;1.77;0.70;;;;;;;27.23;39.94;101482.38;5054594;28;20032;-75
2021/09/11 10:46:56;;;;;;;0.88;0.60;;;;;;;27.35;39.95;101470.66;5072554;28;20052;-75
2021/09/11 10:49:35;;;;;;;0.60;0.50;;;;;;;27.21;39.39;101471.59;5054746;28;20108;-75
2021/09/11 10:52:08;;;;;;;1.48;0.82;;;;;;;27.30;40.06;101469.13;5072513;28;20044;-75
2021/09/11 10:54:40;;;;;;;11.85;1.13;;;;;;;27.32;40.42;101471.50;5072340;28;20033;-74
2021/09/11 10:57:16;;;;;;;4.03;1.50;;;;;;;27.66;39.77;101457.66;5072320;28;20036;-75
2021/09/11 10:59:43;;;;;;;1.40;1.20;;;;;;;27.93;39.11;101457.81;5072440;28;20020;-75
2021/09/11 11:02:30;;;;;;;4.53;1.63;;;;;;;27.81;38.33;101452.72;5072319;28;20025;-75
2021/09/11 11:04:58;;;;;;;2.25;1.42;;;;;;;27.60;39.06;101462.88;5072573;28;20029;-75
2021/09/11 11:07:30;;;;;;;12.82;2.33;;;;;;;27.66;38.01;101466.06;5054627;28;20490;-75
2021/09/11 11:10:01;;;;;;;3.80;2.33;;;;;;;27.76;37.52;101472.81;5072356;28;20095;-75
2021/09/11 11:12:44;;;;;;;5.00;2.55;;;;;;;27.77;37.60;101480.03;5072349;28;20048;-75
2021/09/11 11:15:12;;;;;;;5.80;2.78;;;;;;;27.57;38.24;101483.34;5072419;28;20017;-75
2021/09/11 11:17:45;;;;;;;5.45;2.53;;;;;;;27.54;38.27;101472.97;5070776;28;20410;-75
2021/09/11 11:20:12;;;;;;;5.25;3.05;;;;;;;27.85;37.92;101471.13;5072902;28;20024;-75
2021/09/11 11:22:40;;;;;;;7.72;3.60;;;;;;;28.03;37.98;101468.16;5056617;28;20036;-74
2021/09/11 11:25:35;;;;;;;3.67;3.00;;;;;;;27.79;37.88;101478.41;5056241;28;20040;-74